sensor_id;sensor_type;location;lat;lon;timestamp;P1;durP1;ratioP1;P2;durP2;ratioP2
44636;SDS011;30343;0.000;0.000;2022-07-18T00:00:48;9.02;;;3.33;;
44636;SDS011;30343;0.000;0.000;2022-07-18T00:03:32;7.53;;;2.92;;
44636;SDS011;30343;0.000;0.000;2022-07-18T00:06:19;9.82;;;3.33;;
44636;SDS011;30343;0.000;0.000;2022-07-18T00:09:06;7.65;;;3.13;;
44636;SDS011;30343;0.000;0.000;2022-07-18T00:11:53;7.05;;;2.85;;
44636;SDS011;30343;0.000;0.000;2022-07-18T00:14:37;9.45;;;3.72;;
44636;SDS011;30343;0.000;0.000;2022-07-18T00:17:22;5.05;;;2.92;;
44636;SDS011;30343;0.000;0.000;2022-07-18T00:20:06;7.68;;;2.70;;
44636;SDS011;30343;0.000;0.000;2022-07-18T00:22:52;6.43;;;2.83;;
44636;SDS011;30343;0.000;0.000;2022-07-18T00:25:39;5.95;;;2.85;;
44636;SDS011;30343;0.000;0.000;2022-07-18T00:28:23;7.22;;;3.50;;
44636;SDS011;30343;0.000;0.000;2022-07-18T00:31:12;5.80;;;3.42;;
44636;SDS011;30343;0.000;0.000;2022-07-18T00:33:59;6.97;;;3.33;;
44636;SDS011;30343;0.000;0.000;2022-07-18T00:36:47;9.60;;;3.88;;
44636;SDS011;30343;0.000;0.000;2022-07-18T00:39:30;6.07;;;3.38;;
44636;SDS011;30343;0.000;0.000;2022-07-18T00:42:15;6.78;;;3.08;;
44636;SDS011;30343;0.000;0.000;2022-07-18T00:44:59;11.43;;;2.92;;
44636;SDS011;30343;0.000;0.000;2022-07-18T00:47:46;5.78;;;3.15;;
44636;SDS011;30343;0.000;0.000;2022-07-18T00:50:36;8.82;;;3.38;;
44636;SDS011;30343;0.000;0.000;2022-07-18T00:53:33;6.57;;;2.97;;
44636;SDS011;30343;0.000;0.000;2022-07-18T00:56:23;9.20;;;4.00;;
44636;SDS011;30343;0.000;0.000;2022-07-18T00:59:13;6.47;;;3.22;;
44636;SDS011;30343;0.000;0.000;2022-07-18T01:01:57;8.20;;;3.40;;
44636;SDS011;30343;0.000;0.000;2022-07-18T01:04:44;8.77;;;3.70;;
44636;SDS011;30343;0.000;0.000;2022-07-18T01:07:28;5.78;;;2.78;;
44636;SDS011;30343;0.000;0.000;2022-07-18T01:10:15;8.30;;;3.58;;
44636;SDS011;30343;0.000;0.000;2022-07-18T01:13:01;6.85;;;2.97;;
44636;SDS011;30343;0.000;0.000;2022-07-18T01:15:56;6.00;;;3.42;;
44636;SDS011;30343;0.000;0.000;2022-07-18T01:18:47;11.52;;;3.53;;
44636;SDS011;30343;0.000;0.000;2022-07-18T01:21:33;7.00;;;3.25;;
44636;SDS011;30343;0.000;0.000;2022-07-18T01:24:30;7.00;;;3.55;;
44636;SDS011;30343;0.000;0.000;2022-07-18T01:27:21;7.45;;;3.13;;
44636;SDS011;30343;0.000;0.000;2022-07-18T01:30:06;9.52;;;3.47;;
44636;SDS011;30343;0.000;0.000;2022-07-18T01:32:59;6.85;;;3.25;;
44636;SDS011;30343;0.000;0.000;2022-07-18T01:35:47;6.53;;;3.92;;
44636;SDS011;30343;0.000;0.000;2022-07-18T01:38:35;9.65;;;3.75;;
44636;SDS011;30343;0.000;0.000;2022-07-18T01:41:22;6.60;;;3.13;;
44636;SDS011;30343;0.000;0.000;2022-07-18T01:44:14;5.43;;;2.75;;
44636;SDS011;30343;0.000;0.000;2022-07-18T01:47:05;6.82;;;2.88;;
44636;SDS011;30343;0.000;0.000;2022-07-18T01:49:58;6.88;;;3.38;;
44636;SDS011;30343;0.000;0.000;2022-07-18T01:52:44;7.70;;;3.28;;
44636;SDS011;30343;0.000;0.000;2022-07-18T01:55:33;4.35;;;3.25;;
44636;SDS011;30343;0.000;0.000;2022-07-18T01:58:26;13.00;;;3.90;;
44636;SDS011;30343;0.000;0.000;2022-07-18T02:01:16;6.47;;;3.65;;
44636;SDS011;30343;0.000;0.000;2022-07-18T02:04:06;6.28;;;3.25;;
44636;SDS011;30343;0.000;0.000;2022-07-18T02:06:55;5.85;;;3.45;;
44636;SDS011;30343;0.000;0.000;2022-07-18T02:09:42;4.97;;;2.90;;
44636;SDS011;30343;0.000;0.000;2022-07-18T02:12:26;6.13;;;2.80;;
44636;SDS011;30343;0.000;0.000;2022-07-18T02:15:11;4.45;;;2.55;;
44636;SDS011;30343;0.000;0.000;2022-07-18T02:18:00;9.10;;;3.42;;
44636;SDS011;30343;0.000;0.000;2022-07-18T02:20:43;7.00;;;2.95;;
44636;SDS011;30343;0.000;0.000;2022-07-18T02:23:33;5.85;;;2.95;;
44636;SDS011;30343;0.000;0.000;2022-07-18T02:26:20;8.32;;;2.97;;
44636;SDS011;30343;0.000;0.000;2022-07-18T02:29:04;5.13;;;3.13;;
44636;SDS011;30343;0.000;0.000;2022-07-18T02:31:57;6.78;;;3.13;;
44636;SDS011;30343;0.000;0.000;2022-07-18T02:34:41;8.48;;;3.28;;
44636;SDS011;30343;0.000;0.000;2022-07-18T02:37:28;7.65;;;3.33;;
44636;SDS011;30343;0.000;0.000;2022-07-18T02:40:18;5.20;;;3.20;;
44636;SDS011;30343;0.000;0.000;2022-07-18T02:43:08;5.43;;;2.83;;
44636;SDS011;30343;0.000;0.000;2022-07-18T02:45:53;5.28;;;2.65;;
44636;SDS011;30343;0.000;0.000;2022-07-18T02:48:45;5.20;;;2.45;;
44636;SDS011;30343;0.000;0.000;2022-07-18T02:51:29;5.72;;;3.00;;
44636;SDS011;30343;0.000;0.000;2022-07-18T02:54:19;4.43;;;2.90;;
44636;SDS011;30343;0.000;0.000;2022-07-18T02:57:06;8.95;;;3.15;;
44636;SDS011;30343;0.000;0.000;2022-07-18T02:59:56;5.60;;;2.55;;
44636;SDS011;30343;0.000;0.000;2022-07-18T03:02:46;5.53;;;3.20;;
44636;SDS011;30343;0.000;0.000;2022-07-18T03:05:38;5.95;;;2.80;;
44636;SDS011;30343;0.000;0.000;2022-07-18T03:08:22;6.45;;;2.95;;
44636;SDS011;30343;0.000;0.000;2022-07-18T03:11:06;6.32;;;3.05;;
44636;SDS011;30343;0.000;0.000;2022-07-18T03:13:56;7.35;;;2.83;;
44636;SDS011;30343;0.000;0.000;2022-07-18T03:16:46;9.18;;;3.50;;
44636;SDS011;30343;0.000;0.000;2022-07-18T03:19:39;4.75;;;2.30;;
44636;SDS011;30343;0.000;0.000;2022-07-18T03:22:26;7.00;;;3.20;;
44636;SDS011;30343;0.000;0.000;2022-07-18T03:25:17;4.93;;;2.45;;
44636;SDS011;30343;0.000;0.000;2022-07-18T03:28:03;6.75;;;3.15;;
44636;SDS011;30343;0.000;0.000;2022-07-18T03:30:53;5.68;;;3.03;;
44636;SDS011;30343;0.000;0.000;2022-07-18T03:33:44;6.82;;;3.80;;
44636;SDS011;30343;0.000;0.000;2022-07-18T03:36:28;10.10;;;3.72;;
44636;SDS011;30343;0.000;0.000;2022-07-18T03:39:21;4.53;;;2.92;;
44636;SDS011;30343;0.000;0.000;2022-07-18T03:42:16;7.03;;;3.35;;
44636;SDS011;30343;0.000;0.000;2022-07-18T03:45:03;10.32;;;3.10;;
44636;SDS011;30343;0.000;0.000;2022-07-18T03:47:57;8.50;;;2.80;;
44636;SDS011;30343;0.000;0.000;2022-07-18T03:50:55;10.55;;;3.05;;
44636;SDS011;30343;0.000;0.000;2022-07-18T03:53:42;8.07;;;2.92;;
44636;SDS011;30343;0.000;0.000;2022-07-18T03:56:29;8.20;;;3.25;;
44636;SDS011;30343;0.000;0.000;2022-07-18T03:59:19;7.28;;;3.30;;
44636;SDS011;30343;0.000;0.000;2022-07-18T04:02:08;6.05;;;3.00;;
44636;SDS011;30343;0.000;0.000;2022-07-18T04:05:00;10.63;;;3.20;;
44636;SDS011;30343;0.000;0.000;2022-07-18T04:07:53;12.48;;;3.33;;
44636;SDS011;30343;0.000;0.000;2022-07-18T04:10:48;5.38;;;2.92;;
44636;SDS011;30343;0.000;0.000;2022-07-18T04:13:34;8.85;;;2.78;;
44636;SDS011;30343;0.000;0.000;2022-07-18T04:16:24;4.68;;;3.00;;
44636;SDS011;30343;0.000;0.000;2022-07-18T04:19:09;6.80;;;3.20;;
44636;SDS011;30343;0.000;0.000;2022-07-18T04:21:53;7.53;;;2.75;;
44636;SDS011;30343;0.000;0.000;2022-07-18T04:24:39;6.10;;;3.20;;
44636;SDS011;30343;0.000;0.000;2022-07-18T04:27:23;4.60;;;2.58;;
44636;SDS011;30343;0.000;0.000;2022-07-18T04:30:17;5.35;;;2.80;;
44636;SDS011;30343;0.000;0.000;2022-07-18T04:33:08;7.55;;;2.78;;
44636;SDS011;30343;0.000;0.000;2022-07-18T04:35:58;5.15;;;2.80;;
44636;SDS011;30343;0.000;0.000;2022-07-18T04:38:50;3.67;;;2.70;;
44636;SDS011;30343;0.000;0.000;2022-07-18T04:41:37;4.28;;;2.58;;
44636;SDS011;30343;0.000;0.000;2022-07-18T04:44:26;8.05;;;2.90;;
44636;SDS011;30343;0.000;0.000;2022-07-18T04:47:13;4.97;;;2.55;;
44636;SDS011;30343;0.000;0.000;2022-07-18T04:50:02;4.05;;;2.58;;
44636;SDS011;30343;0.000;0.000;2022-07-18T04:52:48;5.57;;;2.72;;
44636;SDS011;30343;0.000;0.000;2022-07-18T04:55:35;6.63;;;2.47;;
44636;SDS011;30343;0.000;0.000;2022-07-18T04:58:24;5.10;;;2.30;;
44636;SDS011;30343;0.000;0.000;2022-07-18T05:01:13;6.72;;;2.33;;
44636;SDS011;30343;0.000;0.000;2022-07-18T05:03:57;4.45;;;2.28;;
44636;SDS011;30343;0.000;0.000;2022-07-18T05:06:41;5.82;;;2.50;;
44636;SDS011;30343;0.000;0.000;2022-07-18T05:09:28;9.35;;;3.40;;
44636;SDS011;30343;0.000;0.000;2022-07-18T05:12:13;5.53;;;2.22;;
44636;SDS011;30343;0.000;0.000;2022-07-18T05:15:06;3.85;;;2.10;;
44636;SDS011;30343;0.000;0.000;2022-07-18T05:17:52;3.85;;;1.85;;
44636;SDS011;30343;0.000;0.000;2022-07-18T05:20:40;4.20;;;2.53;;
44636;SDS011;30343;0.000;0.000;2022-07-18T05:26:08;5.18;;;2.58;;
44636;SDS011;30343;0.000;0.000;2022-07-18T05:28:52;5.97;;;2.35;;
44636;SDS011;30343;0.000;0.000;2022-07-18T05:31:40;8.15;;;2.47;;
44636;SDS011;30343;0.000;0.000;2022-07-18T05:34:25;6.25;;;2.33;;
44636;SDS011;30343;0.000;0.000;2022-07-18T05:37:12;5.43;;;2.20;;
44636;SDS011;30343;0.000;0.000;2022-07-18T05:39:59;4.55;;;2.10;;
44636;SDS011;30343;0.000;0.000;2022-07-18T05:42:43;4.90;;;2.78;;
44636;SDS011;30343;0.000;0.000;2022-07-18T05:45:32;4.15;;;2.13;;
44636;SDS011;30343;0.000;0.000;2022-07-18T05:48:19;5.25;;;1.83;;
44636;SDS011;30343;0.000;0.000;2022-07-18T05:51:08;3.45;;;2.10;;
44636;SDS011;30343;0.000;0.000;2022-07-18T05:53:56;5.30;;;2.25;;
44636;SDS011;30343;0.000;0.000;2022-07-18T05:56:44;7.68;;;2.17;;
44636;SDS011;30343;0.000;0.000;2022-07-18T05:59:31;8.05;;;2.47;;
44636;SDS011;30343;0.000;0.000;2022-07-18T06:02:19;5.38;;;1.83;;
44636;SDS011;30343;0.000;0.000;2022-07-18T06:05:03;10.20;;;2.53;;
44636;SDS011;30343;0.000;0.000;2022-07-18T06:07:50;4.68;;;2.17;;
44636;SDS011;30343;0.000;0.000;2022-07-18T06:10:36;6.35;;;2.20;;
44636;SDS011;30343;0.000;0.000;2022-07-18T06:13:20;6.55;;;2.28;;
44636;SDS011;30343;0.000;0.000;2022-07-18T06:16:04;5.32;;;2.30;;
44636;SDS011;30343;0.000;0.000;2022-07-18T06:18:49;5.00;;;2.35;;
44636;SDS011;30343;0.000;0.000;2022-07-18T06:21:36;7.05;;;2.13;;
44636;SDS011;30343;0.000;0.000;2022-07-18T06:24:29;2.17;;;1.65;;
44636;SDS011;30343;0.000;0.000;2022-07-18T06:27:12;3.63;;;2.30;;
44636;SDS011;30343;0.000;0.000;2022-07-18T06:30:02;9.63;;;2.25;;
44636;SDS011;30343;0.000;0.000;2022-07-18T06:32:47;6.30;;;2.60;;
44636;SDS011;30343;0.000;0.000;2022-07-18T06:35:31;9.40;;;2.60;;
44636;SDS011;30343;0.000;0.000;2022-07-18T06:38:16;6.93;;;2.20;;
44636;SDS011;30343;0.000;0.000;2022-07-18T06:41:00;6.75;;;2.08;;
44636;SDS011;30343;0.000;0.000;2022-07-18T06:43:44;8.95;;;2.65;;
44636;SDS011;30343;0.000;0.000;2022-07-18T06:46:29;6.28;;;2.33;;
44636;SDS011;30343;0.000;0.000;2022-07-18T06:52:00;5.68;;;2.50;;
44636;SDS011;30343;0.000;0.000;2022-07-18T06:54:43;3.40;;;1.95;;
44636;SDS011;30343;0.000;0.000;2022-07-18T06:57:27;8.30;;;2.53;;
44636;SDS011;30343;0.000;0.000;2022-07-18T07:00:12;5.18;;;1.90;;
44636;SDS011;30343;0.000;0.000;2022-07-18T07:02:57;5.53;;;2.20;;
44636;SDS011;30343;0.000;0.000;2022-07-18T07:05:41;4.60;;;2.15;;
44636;SDS011;30343;0.000;0.000;2022-07-18T07:08:25;3.65;;;2.08;;
44636;SDS011;30343;0.000;0.000;2022-07-18T07:11:09;9.65;;;2.33;;
44636;SDS011;30343;0.000;0.000;2022-07-18T07:13:53;5.80;;;1.90;;
44636;SDS011;30343;0.000;0.000;2022-07-18T07:16:37;4.22;;;2.03;;
44636;SDS011;30343;0.000;0.000;2022-07-18T07:19:21;7.03;;;2.20;;
44636;SDS011;30343;0.000;0.000;2022-07-18T07:22:05;4.50;;;1.85;;
44636;SDS011;30343;0.000;0.000;2022-07-18T07:24:49;3.33;;;2.13;;
44636;SDS011;30343;0.000;0.000;2022-07-18T07:27:33;6.70;;;2.50;;
44636;SDS011;30343;0.000;0.000;2022-07-18T07:30:17;3.00;;;2.03;;
44636;SDS011;30343;0.000;0.000;2022-07-18T07:35:46;4.90;;;2.10;;
44636;SDS011;30343;0.000;0.000;2022-07-18T07:38:30;3.13;;;1.80;;
44636;SDS011;30343;0.000;0.000;2022-07-18T07:41:14;3.53;;;2.20;;
44636;SDS011;30343;0.000;0.000;2022-07-18T07:44:02;6.22;;;2.58;;
44636;SDS011;30343;0.000;0.000;2022-07-18T07:46:52;7.30;;;2.20;;
44636;SDS011;30343;0.000;0.000;2022-07-18T07:49:36;5.43;;;2.10;;
44636;SDS011;30343;0.000;0.000;2022-07-18T07:55:07;6.13;;;1.58;;
44636;SDS011;30343;0.000;0.000;2022-07-18T07:57:52;10.98;;;2.00;;
44636;SDS011;30343;0.000;0.000;2022-07-18T08:00:37;4.68;;;1.98;;
44636;SDS011;30343;0.000;0.000;2022-07-18T08:03:21;5.78;;;1.85;;
44636;SDS011;30343;0.000;0.000;2022-07-18T08:06:08;4.80;;;2.47;;
44636;SDS011;30343;0.000;0.000;2022-07-18T08:08:52;4.10;;;1.80;;
44636;SDS011;30343;0.000;0.000;2022-07-18T08:11:36;9.43;;;1.75;;
44636;SDS011;30343;0.000;0.000;2022-07-18T08:14:20;12.73;;;2.55;;
44636;SDS011;30343;0.000;0.000;2022-07-18T08:17:03;14.88;;;3.30;;
44636;SDS011;30343;0.000;0.000;2022-07-18T08:19:48;12.85;;;3.38;;
44636;SDS011;30343;0.000;0.000;2022-07-18T08:22:32;15.30;;;2.85;;
44636;SDS011;30343;0.000;0.000;2022-07-18T08:25:19;9.70;;;3.28;;
44636;SDS011;30343;0.000;0.000;2022-07-18T08:28:05;7.47;;;2.53;;
44636;SDS011;30343;0.000;0.000;2022-07-18T08:30:50;13.90;;;2.63;;
44636;SDS011;30343;0.000;0.000;2022-07-18T08:33:36;8.88;;;2.85;;
44636;SDS011;30343;0.000;0.000;2022-07-18T08:36:20;6.07;;;2.15;;
44636;SDS011;30343;0.000;0.000;2022-07-18T08:39:05;5.60;;;2.00;;
44636;SDS011;30343;0.000;0.000;2022-07-18T08:41:50;7.32;;;1.80;;
44636;SDS011;30343;0.000;0.000;2022-07-18T08:44:35;6.57;;;2.47;;
44636;SDS011;30343;0.000;0.000;2022-07-18T08:47:20;5.22;;;1.80;;
44636;SDS011;30343;0.000;0.000;2022-07-18T08:50:05;6.60;;;2.35;;
44636;SDS011;30343;0.000;0.000;2022-07-18T08:52:49;6.10;;;2.03;;
44636;SDS011;30343;0.000;0.000;2022-07-18T08:55:34;10.35;;;2.10;;
44636;SDS011;30343;0.000;0.000;2022-07-18T08:58:18;4.68;;;1.98;;
44636;SDS011;30343;0.000;0.000;2022-07-18T09:01:02;3.67;;;2.35;;
44636;SDS011;30343;0.000;0.000;2022-07-18T09:03:46;6.93;;;2.05;;
44636;SDS011;30343;0.000;0.000;2022-07-18T09:06:53;14.67;;;2.93;;
44636;SDS011;30343;0.000;0.000;2022-07-18T09:09:38;10.57;;;1.98;;
44636;SDS011;30343;0.000;0.000;2022-07-18T09:12:35;5.75;;;2.10;;
44636;SDS011;30343;0.000;0.000;2022-07-18T09:15:18;5.25;;;1.95;;
44636;SDS011;30343;0.000;0.000;2022-07-18T09:18:02;6.93;;;1.88;;
44636;SDS011;30343;0.000;0.000;2022-07-18T09:20:56;4.15;;;1.77;;
44636;SDS011;30343;0.000;0.000;2022-07-18T09:23:50;5.32;;;1.90;;
44636;SDS011;30343;0.000;0.000;2022-07-18T09:26:40;2.80;;;1.88;;
44636;SDS011;30343;0.000;0.000;2022-07-18T09:29:29;3.78;;;1.92;;
44636;SDS011;30343;0.000;0.000;2022-07-18T09:32:21;2.47;;;1.60;;
44636;SDS011;30343;0.000;0.000;2022-07-18T09:35:10;5.68;;;1.58;;
44636;SDS011;30343;0.000;0.000;2022-07-18T09:40:45;2.58;;;1.73;;
44636;SDS011;30343;0.000;0.000;2022-07-18T09:43:32;3.10;;;1.77;;
44636;SDS011;30343;0.000;0.000;2022-07-18T09:46:21;4.53;;;2.05;;
44636;SDS011;30343;0.000;0.000;2022-07-18T09:49:08;2.70;;;1.75;;
44636;SDS011;30343;0.000;0.000;2022-07-18T09:52:06;5.22;;;1.45;;
44636;SDS011;30343;0.000;0.000;2022-07-18T09:54:52;2.63;;;1.92;;
44636;SDS011;30343;0.000;0.000;2022-07-18T09:58:10;4.88;;;1.70;;
44636;SDS011;30343;0.000;0.000;2022-07-18T10:00:55;3.80;;;1.75;;
44636;SDS011;30343;0.000;0.000;2022-07-18T10:03:40;3.25;;;1.98;;
44636;SDS011;30343;0.000;0.000;2022-07-18T10:06:24;4.60;;;2.00;;
44636;SDS011;30343;0.000;0.000;2022-07-18T10:09:08;3.53;;;1.70;;
44636;SDS011;30343;0.000;0.000;2022-07-18T10:11:58;2.72;;;1.65;;
44636;SDS011;30343;0.000;0.000;2022-07-18T10:14:43;4.55;;;1.92;;
44636;SDS011;30343;0.000;0.000;2022-07-18T10:17:28;5.30;;;1.90;;
44636;SDS011;30343;0.000;0.000;2022-07-18T10:20:12;4.43;;;1.60;;
44636;SDS011;30343;0.000;0.000;2022-07-18T10:23:02;3.83;;;1.60;;
44636;SDS011;30343;0.000;0.000;2022-07-18T10:29:16;3.28;;;2.15;;
44636;SDS011;30343;0.000;0.000;2022-07-18T10:32:02;4.57;;;2.00;;
44636;SDS011;30343;0.000;0.000;2022-07-18T10:34:47;8.68;;;1.92;;
44636;SDS011;30343;0.000;0.000;2022-07-18T10:37:31;4.45;;;2.05;;
44636;SDS011;30343;0.000;0.000;2022-07-18T10:40:23;7.95;;;1.60;;
44636;SDS011;30343;0.000;0.000;2022-07-18T10:46:13;7.68;;;3.22;;
44636;SDS011;30343;0.000;0.000;2022-07-18T10:48:57;3.08;;;1.85;;
44636;SDS011;30343;0.000;0.000;2022-07-18T10:54:28;2.95;;;2.25;;
44636;SDS011;30343;0.000;0.000;2022-07-18T10:57:12;8.73;;;3.10;;
44636;SDS011;30343;0.000;0.000;2022-07-18T11:05:45;13.25;;;3.47;;
44636;SDS011;30343;0.000;0.000;2022-07-18T11:08:33;8.88;;;2.85;;
44636;SDS011;30343;0.000;0.000;2022-07-18T11:11:18;3.97;;;2.85;;
44636;SDS011;30343;0.000;0.000;2022-07-18T11:14:05;5.50;;;2.22;;
44636;SDS011;30343;0.000;0.000;2022-07-18T11:17:04;4.22;;;2.63;;
44636;SDS011;30343;0.000;0.000;2022-07-18T11:20:21;5.63;;;2.30;;
44636;SDS011;30343;0.000;0.000;2022-07-18T11:23:18;5.22;;;2.15;;
44636;SDS011;30343;0.000;0.000;2022-07-18T11:26:02;4.00;;;1.75;;
44636;SDS011;30343;0.000;0.000;2022-07-18T11:28:56;5.18;;;2.08;;
44636;SDS011;30343;0.000;0.000;2022-07-18T11:31:48;5.35;;;1.80;;
44636;SDS011;30343;0.000;0.000;2022-07-18T11:34:36;2.72;;;1.85;;
44636;SDS011;30343;0.000;0.000;2022-07-18T11:37:20;3.92;;;2.17;;
44636;SDS011;30343;0.000;0.000;2022-07-18T11:40:05;9.30;;;1.98;;
44636;SDS011;30343;0.000;0.000;2022-07-18T11:42:53;6.05;;;1.98;;
44636;SDS011;30343;0.000;0.000;2022-07-18T11:45:40;3.55;;;2.25;;
44636;SDS011;30343;0.000;0.000;2022-07-18T11:48:24;3.45;;;1.88;;
44636;SDS011;30343;0.000;0.000;2022-07-18T11:51:14;3.88;;;1.65;;
44636;SDS011;30343;0.000;0.000;2022-07-18T11:53:59;2.30;;;1.38;;
44636;SDS011;30343;0.000;0.000;2022-07-18T11:56:44;4.05;;;1.70;;
44636;SDS011;30343;0.000;0.000;2022-07-18T11:59:37;3.15;;;1.60;;
44636;SDS011;30343;0.000;0.000;2022-07-18T12:05:51;2.75;;;1.75;;
44636;SDS011;30343;0.000;0.000;2022-07-18T12:08:38;5.68;;;1.63;;
44636;SDS011;30343;0.000;0.000;2022-07-18T12:14:15;4.88;;;2.05;;
44636;SDS011;30343;0.000;0.000;2022-07-18T12:16:59;8.00;;;2.10;;
44636;SDS011;30343;0.000;0.000;2022-07-18T12:19:43;4.32;;;1.98;;
44636;SDS011;30343;0.000;0.000;2022-07-18T12:22:28;12.68;;;2.60;;
44636;SDS011;30343;0.000;0.000;2022-07-18T12:25:11;10.98;;;2.30;;
44636;SDS011;30343;0.000;0.000;2022-07-18T12:27:55;5.25;;;1.98;;
44636;SDS011;30343;0.000;0.000;2022-07-18T12:30:39;7.05;;;1.77;;
44636;SDS011;30343;0.000;0.000;2022-07-18T12:33:23;7.63;;;2.22;;
44636;SDS011;30343;0.000;0.000;2022-07-18T12:36:07;6.53;;;2.22;;
44636;SDS011;30343;0.000;0.000;2022-07-18T12:39:00;3.10;;;1.70;;
44636;SDS011;30343;0.000;0.000;2022-07-18T12:41:44;3.72;;;2.33;;
44636;SDS011;30343;0.000;0.000;2022-07-18T12:44:32;4.72;;;1.90;;
44636;SDS011;30343;0.000;0.000;2022-07-18T12:47:16;8.02;;;2.25;;
44636;SDS011;30343;0.000;0.000;2022-07-18T12:50:00;3.42;;;1.90;;
44636;SDS011;30343;0.000;0.000;2022-07-18T12:52:45;2.42;;;1.70;;
44636;SDS011;30343;0.000;0.000;2022-07-18T12:55:31;2.83;;;1.77;;
44636;SDS011;30343;0.000;0.000;2022-07-18T12:58:18;3.97;;;1.83;;
44636;SDS011;30343;0.000;0.000;2022-07-18T13:01:02;2.42;;;1.60;;
44636;SDS011;30343;0.000;0.000;2022-07-18T13:03:46;2.60;;;1.88;;
44636;SDS011;30343;0.000;0.000;2022-07-18T13:06:30;8.02;;;2.42;;
44636;SDS011;30343;0.000;0.000;2022-07-18T13:09:14;11.05;;;2.60;;
44636;SDS011;30343;0.000;0.000;2022-07-18T13:11:58;12.18;;;2.85;;
44636;SDS011;30343;0.000;0.000;2022-07-18T13:14:43;8.20;;;1.83;;
44636;SDS011;30343;0.000;0.000;2022-07-18T13:17:27;7.35;;;2.00;;
44636;SDS011;30343;0.000;0.000;2022-07-18T13:20:11;11.38;;;2.83;;
44636;SDS011;30343;0.000;0.000;2022-07-18T13:22:55;12.45;;;2.53;;
44636;SDS011;30343;0.000;0.000;2022-07-18T13:25:39;15.68;;;2.97;;
44636;SDS011;30343;0.000;0.000;2022-07-18T13:28:23;10.65;;;2.95;;
44636;SDS011;30343;0.000;0.000;2022-07-18T13:31:07;11.95;;;2.22;;
44636;SDS011;30343;0.000;0.000;2022-07-18T13:33:52;6.40;;;2.33;;
44636;SDS011;30343;0.000;0.000;2022-07-18T13:36:36;5.07;;;2.25;;
44636;SDS011;30343;0.000;0.000;2022-07-18T13:39:20;4.88;;;2.13;;
44636;SDS011;30343;0.000;0.000;2022-07-18T13:42:03;6.82;;;2.22;;
44636;SDS011;30343;0.000;0.000;2022-07-18T13:44:48;4.80;;;2.00;;
44636;SDS011;30343;0.000;0.000;2022-07-18T13:47:32;5.20;;;2.38;;
44636;SDS011;30343;0.000;0.000;2022-07-18T13:50:16;4.00;;;1.80;;
44636;SDS011;30343;0.000;0.000;2022-07-18T13:53:01;6.82;;;1.90;;
44636;SDS011;30343;0.000;0.000;2022-07-18T13:58:29;3.70;;;1.80;;
44636;SDS011;30343;0.000;0.000;2022-07-18T14:01:13;2.97;;;1.48;;
44636;SDS011;30343;0.000;0.000;2022-07-18T14:03:57;5.68;;;1.80;;
44636;SDS011;30343;0.000;0.000;2022-07-18T14:09:25;6.30;;;2.20;;
44636;SDS011;30343;0.000;0.000;2022-07-18T14:12:08;7.63;;;1.92;;
44636;SDS011;30343;0.000;0.000;2022-07-18T14:14:52;5.25;;;1.83;;
44636;SDS011;30343;0.000;0.000;2022-07-18T14:20:20;3.07;;;1.53;;
44636;SDS011;30343;0.000;0.000;2022-07-18T14:23:07;4.68;;;2.17;;
44636;SDS011;30343;0.000;0.000;2022-07-18T14:25:51;4.43;;;1.73;;
44636;SDS011;30343;0.000;0.000;2022-07-18T14:28:35;2.75;;;1.80;;
44636;SDS011;30343;0.000;0.000;2022-07-18T14:34:03;3.97;;;2.10;;
44636;SDS011;30343;0.000;0.000;2022-07-18T14:36:47;4.65;;;1.75;;
44636;SDS011;30343;0.000;0.000;2022-07-18T14:39:34;6.80;;;1.80;;
44636;SDS011;30343;0.000;0.000;2022-07-18T14:42:18;5.20;;;2.00;;
44636;SDS011;30343;0.000;0.000;2022-07-18T14:45:02;3.03;;;1.88;;
44636;SDS011;30343;0.000;0.000;2022-07-18T14:47:46;7.03;;;1.98;;
44636;SDS011;30343;0.000;0.000;2022-07-18T14:50:33;3.83;;;1.70;;
44636;SDS011;30343;0.000;0.000;2022-07-18T14:53:17;11.20;;;1.80;;
44636;SDS011;30343;0.000;0.000;2022-07-18T14:56:01;6.82;;;1.85;;
44636;SDS011;30343;0.000;0.000;2022-07-18T14:58:45;4.88;;;1.83;;
44636;SDS011;30343;0.000;0.000;2022-07-18T15:01:29;6.50;;;1.63;;
44636;SDS011;30343;0.000;0.000;2022-07-18T15:04:15;2.63;;;1.70;;
44636;SDS011;30343;0.000;0.000;2022-07-18T15:06:59;4.07;;;1.90;;
44636;SDS011;30343;0.000;0.000;2022-07-18T15:09:43;10.30;;;1.92;;
44636;SDS011;30343;0.000;0.000;2022-07-18T15:12:27;3.50;;;1.67;;
44636;SDS011;30343;0.000;0.000;2022-07-18T15:15:11;8.73;;;2.05;;
44636;SDS011;30343;0.000;0.000;2022-07-18T15:17:55;8.82;;;2.03;;
44636;SDS011;30343;0.000;0.000;2022-07-18T15:20:42;3.03;;;1.83;;
44636;SDS011;30343;0.000;0.000;2022-07-18T15:23:25;5.75;;;1.90;;
44636;SDS011;30343;0.000;0.000;2022-07-18T15:26:09;4.85;;;1.63;;
44636;SDS011;30343;0.000;0.000;2022-07-18T15:28:53;3.30;;;1.90;;
44636;SDS011;30343;0.000;0.000;2022-07-18T15:31:37;2.85;;;1.90;;
44636;SDS011;30343;0.000;0.000;2022-07-18T15:34:21;4.95;;;1.88;;
44636;SDS011;30343;0.000;0.000;2022-07-18T15:37:05;6.63;;;1.60;;
44636;SDS011;30343;0.000;0.000;2022-07-18T15:39:49;2.50;;;1.60;;
44636;SDS011;30343;0.000;0.000;2022-07-18T15:42:33;5.13;;;1.85;;
44636;SDS011;30343;0.000;0.000;2022-07-18T15:45:17;5.35;;;1.92;;
44636;SDS011;30343;0.000;0.000;2022-07-18T15:48:01;6.10;;;1.60;;
44636;SDS011;30343;0.000;0.000;2022-07-18T15:50:45;4.75;;;1.70;;
44636;SDS011;30343;0.000;0.000;2022-07-18T15:53:29;7.78;;;2.83;;
44636;SDS011;30343;0.000;0.000;2022-07-18T15:56:13;5.97;;;1.92;;
44636;SDS011;30343;0.000;0.000;2022-07-18T15:58:57;4.85;;;2.28;;
44636;SDS011;30343;0.000;0.000;2022-07-18T16:04:26;4.60;;;1.63;;
44636;SDS011;30343;0.000;0.000;2022-07-18T16:07:09;6.18;;;1.83;;
44636;SDS011;30343;0.000;0.000;2022-07-18T16:09:54;8.32;;;2.40;;
44636;SDS011;30343;0.000;0.000;2022-07-18T16:15:22;5.18;;;2.22;;
44636;SDS011;30343;0.000;0.000;2022-07-18T16:18:09;3.65;;;2.25;;
44636;SDS011;30343;0.000;0.000;2022-07-18T16:20:53;3.13;;;1.50;;
44636;SDS011;30343;0.000;0.000;2022-07-18T16:23:37;3.85;;;1.50;;
44636;SDS011;30343;0.000;0.000;2022-07-18T16:26:21;5.32;;;2.05;;
44636;SDS011;30343;0.000;0.000;2022-07-18T16:29:05;2.38;;;1.60;;
44636;SDS011;30343;0.000;0.000;2022-07-18T16:31:49;6.30;;;2.13;;
44636;SDS011;30343;0.000;0.000;2022-07-18T16:34:39;4.10;;;1.73;;
44636;SDS011;30343;0.000;0.000;2022-07-18T16:37:23;5.10;;;1.77;;
44636;SDS011;30343;0.000;0.000;2022-07-18T16:40:07;3.65;;;1.60;;
44636;SDS011;30343;0.000;0.000;2022-07-18T16:42:52;4.50;;;2.10;;
44636;SDS011;30343;0.000;0.000;2022-07-18T16:45:37;6.35;;;1.77;;
44636;SDS011;30343;0.000;0.000;2022-07-18T16:48:22;3.03;;;1.48;;
44636;SDS011;30343;0.000;0.000;2022-07-18T16:51:06;5.40;;;1.58;;
44636;SDS011;30343;0.000;0.000;2022-07-18T16:53:51;4.32;;;1.33;;
44636;SDS011;30343;0.000;0.000;2022-07-18T16:56:36;2.60;;;1.50;;
44636;SDS011;30343;0.000;0.000;2022-07-18T16:59:21;5.63;;;2.05;;
44636;SDS011;30343;0.000;0.000;2022-07-18T17:02:05;4.07;;;1.60;;
44636;SDS011;30343;0.000;0.000;2022-07-18T17:04:50;3.85;;;2.22;;
44636;SDS011;30343;0.000;0.000;2022-07-18T17:07:37;3.88;;;1.75;;
44636;SDS011;30343;0.000;0.000;2022-07-18T17:10:23;4.72;;;2.00;;
44636;SDS011;30343;0.000;0.000;2022-07-18T17:13:08;8.18;;;1.65;;
44636;SDS011;30343;0.000;0.000;2022-07-18T17:15:52;3.85;;;1.80;;
44636;SDS011;30343;0.000;0.000;2022-07-18T17:18:36;3.90;;;1.50;;
44636;SDS011;30343;0.000;0.000;2022-07-18T17:26:49;6.50;;;1.83;;
44636;SDS011;30343;0.000;0.000;2022-07-18T17:29:33;10.20;;;2.28;;
44636;SDS011;30343;0.000;0.000;2022-07-18T17:32:17;4.70;;;2.00;;
44636;SDS011;30343;0.000;0.000;2022-07-18T17:35:02;9.73;;;2.13;;
44636;SDS011;30343;0.000;0.000;2022-07-18T17:37:46;8.45;;;2.20;;
44636;SDS011;30343;0.000;0.000;2022-07-18T17:40:31;7.63;;;2.05;;
44636;SDS011;30343;0.000;0.000;2022-07-18T17:43:16;5.90;;;2.17;;
44636;SDS011;30343;0.000;0.000;2022-07-18T17:46:01;3.20;;;1.63;;
44636;SDS011;30343;0.000;0.000;2022-07-18T17:48:45;7.65;;;2.00;;
44636;SDS011;30343;0.000;0.000;2022-07-18T17:51:29;4.03;;;1.75;;
44636;SDS011;30343;0.000;0.000;2022-07-18T17:54:14;5.13;;;1.95;;